sensor_id;sensor_type;location;lat;lon;timestamp;temperature;humidity
1538;DHT22;12022;52.266;10.522;2023-03-03T01:11:16;1.90;99.90
1538;DHT22;12022;52.266;10.522;2023-03-03T01:13:45;2.00;99.90
1538;DHT22;12022;52.266;10.522;2023-03-03T01:16:13;2.10;99.90
1538;DHT22;12022;52.266;10.522;2023-03-03T01:18:40;2.10;99.90
1538;DHT22;12022;52.266;10.522;2023-03-03T01:21:09;2.10;99.90
1538;DHT22;12022;52.266;10.522;2023-03-03T01:23:36;2.10;99.90
1538;DHT22;12022;52.266;10.522;2023-03-03T01:26:04;2.10;99.90
1538;DHT22;12022;52.266;10.522;2023-03-03T01:28:32;2.10;99.90
1538;DHT22;12022;52.266;10.522;2023-03-03T01:31:03;2.10;99.90
1538;DHT22;12022;52.266;10.522;2023-03-03T01:33:35;2.10;99.90
1538;DHT22;12022;52.266;10.522;2023-03-03T01:36:02;2.10;99.90
1538;DHT22;12022;52.266;10.522;2023-03-03T01:38:29;2.10;99.90
1538;DHT22;12022;52.266;10.522;2023-03-03T01:40:58;2.10;99.90
1538;DHT22;12022;52.266;10.522;2023-03-03T01:43:30;2.10;99.90
1538;DHT22;12022;52.266;10.522;2023-03-03T01:48:27;2.10;99.90
1538;DHT22;12022;52.266;10.522;2023-03-03T01:51:00;2.10;99.90
1538;DHT22;12022;52.266;10.522;2023-03-03T01:53:35;2.20;99.90
1538;DHT22;12022;52.266;10.522;2023-03-03T01:56:04;2.10;99.90
1538;DHT22;12022;52.266;10.522;2023-03-03T01:59:00;2.00;99.90
1538;DHT22;12022;52.266;10.522;2023-03-03T02:01:30;2.00;99.90
1538;DHT22;12022;52.266;10.522;2023-03-03T02:03:58;1.90;99.90
1538;DHT22;12022;52.266;10.522;2023-03-03T02:06:36;1.90;99.90
1538;DHT22;12022;52.266;10.522;2023-03-03T02:12:11;2.00;99.90
1538;DHT22;12022;52.266;10.522;2023-03-03T02:14:40;2.00;99.90
1538;DHT22;12022;52.266;10.522;2023-03-03T02:17:07;2.30;99.90
1538;DHT22;12022;52.266;10.522;2023-03-03T02:19:50;2.10;99.90
1538;DHT22;12022;52.266;10.522;2023-03-03T02:22:25;2.20;99.90
1538;DHT22;12022;52.266;10.522;2023-03-03T02:24:59;2.30;99.90
1538;DHT22;12022;52.266;10.522;2023-03-03T02:27:30;2.30;99.90
1538;DHT22;12022;52.266;10.522;2023-03-03T02:30:06;2.30;99.90
1538;DHT22;12022;52.266;10.522;2023-03-03T02:32:33;2.30;99.90
1538;DHT22;12022;52.266;10.522;2023-03-03T02:35:00;2.30;99.90
1538;DHT22;12022;52.266;10.522;2023-03-03T02:37:27;2.30;99.90
1538;DHT22;12022;52.266;10.522;2023-03-03T02:39:55;2.30;99.90
1538;DHT22;12022;52.266;10.522;2023-03-03T02:42:26;2.30;99.90
1538;DHT22;12022;52.266;10.522;2023-03-03T02:44:55;2.40;99.90
1538;DHT22;12022;52.266;10.522;2023-03-03T02:47:22;2.40;99.90
1538;DHT22;12022;52.266;10.522;2023-03-03T02:49:49;2.40;99.90
1538;DHT22;12022;52.266;10.522;2023-03-03T02:52:16;2.50;99.90
1538;DHT22;12022;52.266;10.522;2023-03-03T02:54:44;2.50;99.90
1538;DHT22;12022;52.266;10.522;2023-03-03T02:57:11;2.50;99.90
1538;DHT22;12022;52.266;10.522;2023-03-03T02:59:38;2.60;99.90
1538;DHT22;12022;52.266;10.522;2023-03-03T03:02:05;2.80;99.90
1538;DHT22;12022;52.266;10.522;2023-03-03T03:07:47;2.70;99.90
1538;DHT22;12022;52.266;10.522;2023-03-03T03:10:17;2.70;99.90
1538;DHT22;12022;52.266;10.522;2023-03-03T03:12:43;2.80;99.90
1538;DHT22;12022;52.266;10.522;2023-03-03T03:15:10;2.70;99.90
1538;DHT22;12022;52.266;10.522;2023-03-03T03:17:38;2.70;99.90
1538;DHT22;12022;52.266;10.522;2023-03-03T03:20:05;2.90;99.90
1538;DHT22;12022;52.266;10.522;2023-03-03T03:22:33;2.50;99.90
1538;DHT22;12022;52.266;10.522;2023-03-03T03:25:00;2.80;99.90
1538;DHT22;12022;52.266;10.522;2023-03-03T03:27:27;2.80;99.90
1538;DHT22;12022;52.266;10.522;2023-03-03T03:29:54;2.60;99.90
1538;DHT22;12022;52.266;10.522;2023-03-03T03:32:21;2.80;99.90
1538;DHT22;12022;52.266;10.522;2023-03-03T03:34:48;2.60;99.90
1538;DHT22;12022;52.266;10.522;2023-03-03T03:37:15;2.60;99.90
1538;DHT22;12022;52.266;10.522;2023-03-03T03:39:42;2.80;99.90
1538;DHT22;12022;52.266;10.522;2023-03-03T03:42:09;2.80;99.90
1538;DHT22;12022;52.266;10.522;2023-03-03T03:44:37;2.70;99.90
1538;DHT22;12022;52.266;10.522;2023-03-03T03:47:04;2.60;99.90
1538;DHT22;12022;52.266;10.522;2023-03-03T03:49:31;2.60;99.90
1538;DHT22;12022;52.266;10.522;2023-03-03T03:51:58;2.60;99.90
1538;DHT22;12022;52.266;10.522;2023-03-03T03:54:25;2.80;99.90
1538;DHT22;12022;52.266;10.522;2023-03-03T03:56:52;2.90;99.90
1538;DHT22;12022;52.266;10.522;2023-03-03T03:59:20;2.90;99.90
1538;DHT22;12022;52.266;10.522;2023-03-03T04:01:47;2.90;99.90
1538;DHT22;12022;52.266;10.522;2023-03-03T04:04:16;2.70;99.90
1538;DHT22;12022;52.266;10.522;2023-03-03T04:06:43;2.70;99.90
1538;DHT22;12022;52.266;10.522;2023-03-03T04:09:10;2.50;99.90
1538;DHT22;12022;52.266;10.522;2023-03-03T04:11:37;2.40;99.90
1538;DHT22;12022;52.266;10.522;2023-03-03T04:14:04;2.50;99.90
1538;DHT22;12022;52.266;10.522;2023-03-03T04:16:31;2.40;99.90
1538;DHT22;12022;52.266;10.522;2023-03-03T04:18:58;2.40;99.90
1538;DHT22;12022;52.266;10.522;2023-03-03T04:21:25;2.30;99.90
1538;DHT22;12022;52.266;10.522;2023-03-03T04:23:53;2.10;99.90
1538;DHT22;12022;52.266;10.522;2023-03-03T04:26:20;2.30;99.90
1538;DHT22;12022;52.266;10.522;2023-03-03T04:28:47;2.10;99.90
1538;DHT22;12022;52.266;10.522;2023-03-03T04:31:14;2.10;99.90
1538;DHT22;12022;52.266;10.522;2023-03-03T04:33:41;2.20;99.90
1538;DHT22;12022;52.266;10.522;2023-03-03T04:36:08;2.20;99.90
1538;DHT22;12022;52.266;10.522;2023-03-03T04:38:35;2.30;99.90
1538;DHT22;12022;52.266;10.522;2023-03-03T04:41:02;2.30;99.90
1538;DHT22;12022;52.266;10.522;2023-03-03T04:43:29;2.40;99.90
1538;DHT22;12022;52.266;10.522;2023-03-03T04:45:56;2.70;99.90
1538;DHT22;12022;52.266;10.522;2023-03-03T04:48:23;2.50;99.90
1538;DHT22;12022;52.266;10.522;2023-03-03T04:50:50;2.60;99.90
1538;DHT22;12022;52.266;10.522;2023-03-03T04:53:17;2.40;99.90
1538;DHT22;12022;52.266;10.522;2023-03-03T04:55:44;2.40;99.90
1538;DHT22;12022;52.266;10.522;2023-03-03T04:58:11;2.50;99.90
1538;DHT22;12022;52.266;10.522;2023-03-03T05:00:38;2.40;99.90
1538;DHT22;12022;52.266;10.522;2023-03-03T05:03:05;2.30;99.90
1538;DHT22;12022;52.266;10.522;2023-03-03T05:05:32;2.30;99.90
1538;DHT22;12022;52.266;10.522;2023-03-03T05:07:59;2.40;99.90
1538;DHT22;12022;52.266;10.522;2023-03-03T05:10:26;2.40;99.90
1538;DHT22;12022;52.266;10.522;2023-03-03T05:12:53;2.30;99.90
1538;DHT22;12022;52.266;10.522;2023-03-03T05:15:20;2.30;99.90
1538;DHT22;12022;52.266;10.522;2023-03-03T05:17:47;2.30;99.90
1538;DHT22;12022;52.266;10.522;2023-03-03T05:20:14;2.40;99.90
1538;DHT22;12022;52.266;10.522;2023-03-03T05:22:41;2.40;99.90
1538;DHT22;12022;52.266;10.522;2023-03-03T05:25:08;2.50;99.90
1538;DHT22;12022;52.266;10.522;2023-03-03T05:27:36;2.50;99.90
1538;DHT22;12022;52.266;10.522;2023-03-03T05:30:04;2.30;99.90
1538;DHT22;12022;52.266;10.522;2023-03-03T05:32:31;2.30;99.90
1538;DHT22;12022;52.266;10.522;2023-03-03T05:35:00;2.30;99.90
1538;DHT22;12022;52.266;10.522;2023-03-03T05:37:27;2.30;99.90
1538;DHT22;12022;52.266;10.522;2023-03-03T05:39:54;2.40;99.90
1538;DHT22;12022;52.266;10.522;2023-03-03T05:42:21;2.50;99.90
1538;DHT22;12022;52.266;10.522;2023-03-03T05:44:48;2.50;99.90
1538;DHT22;12022;52.266;10.522;2023-03-03T05:47:15;2.60;99.90
1538;DHT22;12022;52.266;10.522;2023-03-03T05:49:42;2.70;99.90
1538;DHT22;12022;52.266;10.522;2023-03-03T05:52:09;2.70;99.90
1538;DHT22;12022;52.266;10.522;2023-03-03T05:54:36;2.80;99.90
1538;DHT22;12022;52.266;10.522;2023-03-03T05:57:02;2.80;99.90
1538;DHT22;12022;52.266;10.522;2023-03-03T05:59:29;2.90;99.90
1538;DHT22;12022;52.266;10.522;2023-03-03T06:01:56;3.10;99.90
1538;DHT22;12022;52.266;10.522;2023-03-03T06:04:23;2.90;99.90
1538;DHT22;12022;52.266;10.522;2023-03-03T06:06:50;2.90;99.90
1538;DHT22;12022;52.266;10.522;2023-03-03T06:09:17;2.90;99.90
1538;DHT22;12022;52.266;10.522;2023-03-03T06:11:44;3.00;99.90
1538;DHT22;12022;52.266;10.522;2023-03-03T06:14:11;3.00;99.90
1538;DHT22;12022;52.266;10.522;2023-03-03T06:16:38;3.00;99.90
1538;DHT22;12022;52.266;10.522;2023-03-03T06:19:05;3.00;99.90
1538;DHT22;12022;52.266;10.522;2023-03-03T06:21:32;3.10;99.90
1538;DHT22;12022;52.266;10.522;2023-03-03T06:23:59;3.10;99.90
1538;DHT22;12022;52.266;10.522;2023-03-03T06:26:26;3.10;99.90
1538;DHT22;12022;52.266;10.522;2023-03-03T06:28:53;3.20;99.90
1538;DHT22;12022;52.266;10.522;2023-03-03T06:31:21;3.20;99.90
1538;DHT22;12022;52.266;10.522;2023-03-03T06:33:48;3.20;99.90
1538;DHT22;12022;52.266;10.522;2023-03-03T06:36:15;3.20;99.90
1538;DHT22;12022;52.266;10.522;2023-03-03T06:38:42;3.20;99.90
1538;DHT22;12022;52.266;10.522;2023-03-03T06:41:09;3.20;99.90
1538;DHT22;12022;52.266;10.522;2023-03-03T07:14:13;3.50;99.90
1538;DHT22;12022;52.266;10.522;2023-03-03T07:16:41;3.60;99.90
1538;DHT22;12022;52.266;10.522;2023-03-03T07:19:30;3.80;99.90
1538;DHT22;12022;52.266;10.522;2023-03-03T07:22:11;3.90;99.90
1538;DHT22;12022;52.266;10.522;2023-03-03T07:24:41;3.80;99.90
1538;DHT22;12022;52.266;10.522;2023-03-03T07:27:13;3.80;99.90
1538;DHT22;12022;52.266;10.522;2023-03-03T07:29:50;3.90;99.90
1538;DHT22;12022;52.266;10.522;2023-03-03T07:34:53;4.00;99.90
1538;DHT22;12022;52.266;10.522;2023-03-03T07:39:57;4.20;99.90
1538;DHT22;12022;52.266;10.522;2023-03-03T07:42:41;4.10;99.90
1538;DHT22;12022;52.266;10.522;2023-03-03T07:45:28;4.20;99.90
1538;DHT22;12022;52.266;10.522;2023-03-03T07:50:40;4.30;99.90
1538;DHT22;12022;52.266;10.522;2023-03-03T07:53:25;4.10;99.90
1538;DHT22;12022;52.266;10.522;2023-03-03T07:55:53;4.30;99.90
1538;DHT22;12022;52.266;10.522;2023-03-03T07:58:44;4.50;99.90
1538;DHT22;12022;52.266;10.522;2023-03-03T08:03:46;4.30;99.90
1538;DHT22;12022;52.266;10.522;2023-03-03T08:06:38;4.40;99.90
1538;DHT22;12022;52.266;10.522;2023-03-03T08:11:51;4.50;99.90
1538;DHT22;12022;52.266;10.522;2023-03-03T08:14:33;4.50;99.90
1538;DHT22;12022;52.266;10.522;2023-03-03T08:17:01;4.50;99.90
1538;DHT22;12022;52.266;10.522;2023-03-03T08:19:33;4.70;99.90
1538;DHT22;12022;52.266;10.522;2023-03-03T08:22:48;4.60;99.90
1538;DHT22;12022;52.266;10.522;2023-03-03T08:24:56;4.70;99.90
1538;DHT22;12022;52.266;10.522;2023-03-03T08:27:23;4.90;99.90
1538;DHT22;12022;52.266;10.522;2023-03-03T08:29:54;4.90;99.90
1538;DHT22;12022;52.266;10.522;2023-03-03T08:32:26;4.80;99.90
1538;DHT22;12022;52.266;10.522;2023-03-03T08:34:56;4.80;99.90
1538;DHT22;12022;52.266;10.522;2023-03-03T08:37:23;4.90;99.90
1538;DHT22;12022;52.266;10.522;2023-03-03T08:39:50;5.10;99.90
1538;DHT22;12022;52.266;10.522;2023-03-03T08:42:17;5.10;99.90
1538;DHT22;12022;52.266;10.522;2023-03-03T08:44:44;5.30;99.90
1538;DHT22;12022;52.266;10.522;2023-03-03T08:47:11;5.20;99.90
1538;DHT22;12022;52.266;10.522;2023-03-03T08:49:38;5.20;99.90
1538;DHT22;12022;52.266;10.522;2023-03-03T08:52:05;5.30;99.90
1538;DHT22;12022;52.266;10.522;2023-03-03T08:54:32;5.40;99.90
1538;DHT22;12022;52.266;10.522;2023-03-03T08:57:00;5.50;99.90
1538;DHT22;12022;52.266;10.522;2023-03-03T08:59:27;5.50;99.90
1538;DHT22;12022;52.266;10.522;2023-03-03T09:01:55;5.60;99.90
1538;DHT22;12022;52.266;10.522;2023-03-03T09:04:22;5.70;99.90
1538;DHT22;12022;52.266;10.522;2023-03-03T09:06:50;5.90;99.90
1538;DHT22;12022;52.266;10.522;2023-03-03T09:09:20;5.90;99.90
1538;DHT22;12022;52.266;10.522;2023-03-03T09:11:47;5.90;99.90
1538;DHT22;12022;52.266;10.522;2023-03-03T09:14:16;5.80;99.90
1538;DHT22;12022;52.266;10.522;2023-03-03T09:16:49;5.70;99.90
1538;DHT22;12022;52.266;10.522;2023-03-03T09:19:30;5.70;99.90
1538;DHT22;12022;52.266;10.522;2023-03-03T12:15:32;9.20;99.90
1538;DHT22;12022;52.266;10.522;2023-03-03T12:33:31;9.10;99.90
1538;DHT22;12022;52.266;10.522;2023-03-03T12:48:05;9.10;99.90
1538;DHT22;12022;52.266;10.522;2023-03-03T13:03:03;9.20;99.90
1538;DHT22;12022;52.266;10.522;2023-03-03T13:15:26;9.30;99.90
1538;DHT22;12022;52.266;10.522;2023-03-03T13:18:24;9.40;99.90
1538;DHT22;12022;52.266;10.522;2023-03-03T13:21:03;9.40;99.90
1538;DHT22;12022;52.266;10.522;2023-03-03T13:29:40;9.50;99.90
1538;DHT22;12022;52.266;10.522;2023-03-03T13:32:13;9.40;99.90
1538;DHT22;12022;52.266;10.522;2023-03-03T13:37:41;9.50;99.90
1538;DHT22;12022;52.266;10.522;2023-03-03T13:50:55;9.40;99.90
1538;DHT22;12022;52.266;10.522;2023-03-03T14:07:20;8.60;99.90
1538;DHT22;12022;52.266;10.522;2023-03-03T14:13:11;8.50;99.90
1538;DHT22;12022;52.266;10.522;2023-03-03T14:15:43;8.60;99.90
1538;DHT22;12022;52.266;10.522;2023-03-03T14:18:25;8.70;99.90
1538;DHT22;12022;52.266;10.522;2023-03-03T14:20:57;8.80;99.90
1538;DHT22;12022;52.266;10.522;2023-03-03T14:26:25;8.70;99.90
1538;DHT22;12022;52.266;10.522;2023-03-03T14:29:48;8.80;99.90
1538;DHT22;12022;52.266;10.522;2023-03-03T14:31:50;8.80;99.90
1538;DHT22;12022;52.266;10.522;2023-03-03T14:34:37;8.70;99.90
1538;DHT22;12022;52.266;10.522;2023-03-03T14:42:45;8.70;99.90
1538;DHT22;12022;52.266;10.522;2023-03-03T14:47:57;8.20;99.90
1538;DHT22;12022;52.266;10.522;2023-03-03T14:50:36;8.20;99.90
1538;DHT22;12022;52.266;10.522;2023-03-03T14:55:46;8.20;99.90
1538;DHT22;12022;52.266;10.522;2023-03-03T14:58:36;8.20;99.90
1538;DHT22;12022;52.266;10.522;2023-03-03T15:01:15;8.10;99.90
1538;DHT22;12022;52.266;10.522;2023-03-03T15:04:06;7.90;99.90
1538;DHT22;12022;52.266;10.522;2023-03-03T15:06:45;7.90;99.90
1538;DHT22;12022;52.266;10.522;2023-03-03T15:09:32;7.80;99.90
1538;DHT22;12022;52.266;10.522;2023-03-03T15:15:17;7.80;99.90
1538;DHT22;12022;52.266;10.522;2023-03-03T15:32:24;7.40;99.90
1538;DHT22;12022;52.266;10.522;2023-03-03T15:34:34;7.30;99.90
1538;DHT22;12022;52.266;10.522;2023-03-03T15:40:29;7.10;99.90
1538;DHT22;12022;52.266;10.522;2023-03-03T15:48:44;6.60;99.90
1538;DHT22;12022;52.266;10.522;2023-03-03T15:51:28;6.50;99.90
1538;DHT22;12022;52.266;10.522;2023-03-03T15:59:39;6.10;99.90
1538;DHT22;12022;52.266;10.522;2023-03-03T16:02:36;6.30;99.90
1538;DHT22;12022;52.266;10.522;2023-03-03T16:05:38;6.10;99.90
1538;DHT22;12022;52.266;10.522;2023-03-03T16:13:51;6.20;99.90
1538;DHT22;12022;52.266;10.522;2023-03-03T16:38:40;6.10;99.90
1538;DHT22;12022;52.266;10.522;2023-03-03T16:41:14;6.10;99.90
1538;DHT22;12022;52.266;10.522;2023-03-03T16:44:11;6.10;99.90
1538;DHT22;12022;52.266;10.522;2023-03-03T16:46:44;6.00;99.90
1538;DHT22;12022;52.266;10.522;2023-03-03T16:49:21;6.20;99.90
1538;DHT22;12022;52.266;10.522;2023-03-03T16:52:16;5.90;99.90
1538;DHT22;12022;52.266;10.522;2023-03-03T16:54:50;5.80;99.90
1538;DHT22;12022;52.266;10.522;2023-03-03T16:57:44;5.80;99.90
1538;DHT22;12022;52.266;10.522;2023-03-03T17:00:20;5.70;99.90
1538;DHT22;12022;52.266;10.522;2023-03-03T17:05:54;5.50;99.90
1538;DHT22;12022;52.266;10.522;2023-03-03T17:11:41;5.20;99.90
1538;DHT22;12022;52.266;10.522;2023-03-03T17:25:28;4.60;99.90
1538;DHT22;12022;52.266;10.522;2023-03-03T17:31:12;4.40;99.90
1538;DHT22;12022;52.266;10.522;2023-03-03T17:33:47;4.30;99.90
1538;DHT22;12022;52.266;10.522;2023-03-03T17:39:34;4.10;99.90
1538;DHT22;12022;52.266;10.522;2023-03-03T17:47:08;3.90;99.90
1538;DHT22;12022;52.266;10.522;2023-03-03T18:26:54;3.40;99.90
1538;DHT22;12022;52.266;10.522;2023-03-03T18:29:27;3.40;99.90
1538;DHT22;12022;52.266;10.522;2023-03-03T18:34:38;3.60;99.90
1538;DHT22;12022;52.266;10.522;2023-03-03T18:37:36;3.60;99.90
1538;DHT22;12022;52.266;10.522;2023-03-03T18:42:37;3.90;99.90
1538;DHT22;12022;52.266;10.522;2023-03-03T18:50:39;4.20;99.90
1538;DHT22;12022;52.266;10.522;2023-03-03T18:53:24;4.20;99.90
1538;DHT22;12022;52.266;10.522;2023-03-03T18:56:00;4.30;99.90
1538;DHT22;12022;52.266;10.522;2023-03-03T19:01:05;4.40;99.90
1538;DHT22;12022;52.266;10.522;2023-03-03T19:09:05;4.50;99.90
1538;DHT22;12022;52.266;10.522;2023-03-03T19:11:55;4.60;99.90
1538;DHT22;12022;52.266;10.522;2023-03-03T19:23:04;4.60;99.90
1538;DHT22;12022;52.266;10.522;2023-03-03T19:25:39;4.60;99.90
1538;DHT22;12022;52.266;10.522;2023-03-03T19:34:36;4.80;99.90
1538;DHT22;12022;52.266;10.522;2023-03-03T19:40:58;4.70;99.90
1538;DHT22;12022;52.266;10.522;2023-03-03T19:51:46;4.80;99.90
1538;DHT22;12022;52.266;10.522;2023-03-03T19:54:41;4.80;99.90
1538;DHT22;12022;52.266;10.522;2023-03-03T20:00:44;4.80;99.90
1538;DHT22;12022;52.266;10.522;2023-03-03T22:06:44;5.60;99.90
